createdAt,value
2023-10-19T00:02:58.956Z,34.45
2023-10-19T00:07:05.438Z,29.80
2023-10-19T00:11:10.521Z,38.38
2023-10-19T00:15:15.463Z,31.17
2023-10-19T00:19:20.805Z,32.47
2023-10-19T00:23:33.043Z,29.88
2023-10-19T00:27:36.295Z,31.20
2023-10-19T00:31:42.270Z,32.97
2023-10-19T00:35:48.016Z,31.25
2023-10-19T00:39:55.691Z,30.08
2023-10-19T00:44:03.919Z,28.08
2023-10-19T00:48:09.217Z,24.55
2023-10-19T00:52:13.498Z,26.35
2023-10-19T00:56:20.737Z,26.60
2023-10-19T01:00:31.720Z,36.15
2023-10-19T01:04:35.812Z,26.80
2023-10-19T01:08:43.504Z,26.10
2023-10-19T01:12:47.678Z,24.67
2023-10-19T01:16:51.061Z,27.08
2023-10-19T01:20:56.313Z,31.90
2023-10-19T01:25:04.962Z,28.70
2023-10-19T01:29:14.642Z,30.50
2023-10-19T01:33:17.549Z,29.65
2023-10-19T01:37:21.371Z,28.23
2023-10-19T01:41:27.436Z,27.80
2023-10-19T01:49:33.026Z,30.38
2023-10-19T01:53:37.613Z,26.05
2023-10-19T01:57:41.836Z,27.85
2023-10-19T02:01:46.558Z,29.88
2023-10-19T02:05:51.308Z,28.05
2023-10-19T02:09:54.148Z,26.83
2023-10-19T02:14:01.041Z,25.35
2023-10-19T02:18:04.426Z,26.75
2023-10-19T02:22:09.488Z,29.55
2023-10-19T02:26:14.789Z,26.47
2023-10-19T02:30:19.883Z,25.98
2023-10-19T02:34:24.164Z,31.98
2023-10-19T02:38:27.745Z,22.17
2023-10-19T02:42:30.599Z,22.40
2023-10-19T02:46:35.246Z,23.05
2023-10-19T02:50:38.136Z,24.27
2023-10-19T02:54:40.993Z,27.65
2023-10-19T02:58:45.214Z,23.08
2023-10-19T03:02:52.995Z,21.33
2023-10-19T03:06:57.261Z,24.00
2023-10-19T03:11:05.877Z,18.45
2023-10-19T03:15:09.398Z,23.00
2023-10-19T03:19:14.117Z,26.02
2023-10-19T03:23:17.108Z,22.95
2023-10-19T03:27:22.899Z,23.85
2023-10-19T03:35:31.336Z,22.80
2023-10-19T03:39:38.592Z,21.25
2023-10-19T03:43:42.414Z,20.25
2023-10-19T03:47:48.105Z,22.88
2023-10-19T03:52:01.030Z,22.08
2023-10-19T03:56:11.971Z,23.25
2023-10-19T04:00:20.755Z,20.60
2023-10-19T04:04:23.669Z,19.08
2023-10-19T04:08:28.174Z,22.15
2023-10-19T04:12:32.093Z,19.05
2023-10-19T04:16:38.346Z,20.83
2023-10-19T04:20:56.544Z,18.35
2023-10-19T04:25:02.217Z,19.83
2023-10-19T04:29:10.944Z,18.20
2023-10-19T04:33:17.452Z,17.60
2023-10-19T04:37:20.581Z,19.40
2023-10-19T04:41:24.807Z,18.70
2023-10-19T04:45:27.751Z,18.35
2023-10-19T04:49:30.669Z,24.45
2023-10-19T04:53:34.208Z,22.90
2023-10-19T04:57:38.406Z,25.13
2023-10-19T05:01:42.535Z,18.73
2023-10-19T05:05:45.404Z,21.35
2023-10-19T05:09:48.868Z,21.13
2023-10-19T05:13:53.086Z,20.65
2023-10-19T05:17:56.132Z,18.67
2023-10-19T05:21:59.007Z,20.33
2023-10-19T05:26:03.625Z,19.45
2023-10-19T05:30:11.412Z,19.80
2023-10-19T05:34:14.364Z,20.77
2023-10-19T05:38:17.566Z,19.95
2023-10-19T05:42:21.517Z,20.15
2023-10-19T05:46:26.469Z,17.88
2023-10-19T05:50:29.691Z,23.33
2023-10-19T05:54:32.685Z,20.77
2023-10-19T05:58:37.159Z,20.55
2023-10-19T06:02:46.056Z,21.25
2023-10-19T06:06:49.563Z,15.60
2023-10-19T06:10:54.059Z,17.83
2023-10-19T06:14:56.911Z,17.67
2023-10-19T06:19:01.203Z,14.95
2023-10-19T06:23:06.557Z,15.20
2023-10-19T06:27:10.439Z,12.93
2023-10-19T06:31:14.973Z,12.18
2023-10-19T06:35:19.357Z,11.23
2023-10-19T06:39:22.779Z,8.82
2023-10-19T06:43:31.828Z,12.52
2023-10-19T06:47:38.519Z,11.85
2023-10-19T06:51:42.760Z,25.77
2023-10-19T06:55:45.718Z,22.67
2023-10-19T06:59:48.547Z,17.20
2023-10-19T07:03:54.645Z,15.20
2023-10-19T07:08:00.978Z,23.52
2023-10-19T07:12:04.241Z,19.60
2023-10-19T07:16:10.277Z,17.73
2023-10-19T07:20:26.348Z,11.60
2023-10-19T07:24:30.781Z,13.65
2023-10-19T07:28:36.976Z,12.07
2023-10-19T07:32:41.774Z,8.93
2023-10-19T07:36:44.845Z,7.03
2023-10-19T07:40:49.253Z,10.00
2023-10-19T07:44:52.150Z,9.20
2023-10-19T07:48:54.973Z,11.98
2023-10-19T07:52:57.810Z,6.70
2023-10-19T07:57:04.464Z,5.85
2023-10-19T08:05:35.549Z,8.55
2023-10-19T08:09:38.415Z,10.30
2023-10-19T08:13:42.715Z,7.28
2023-10-19T08:17:48.011Z,11.23
2023-10-19T08:21:50.955Z,6.22
2023-10-19T08:25:56.837Z,7.03
2023-10-19T08:30:01.901Z,5.38
2023-10-19T08:34:04.769Z,19.23
2023-10-19T08:38:12.747Z,9.30
2023-10-19T08:42:15.852Z,8.23
2023-10-19T08:46:20.201Z,15.45
2023-10-19T08:50:24.869Z,9.13
2023-10-19T08:54:28.386Z,8.63
2023-10-19T08:58:32.508Z,9.07
2023-10-19T09:02:36.722Z,8.10
2023-10-19T09:06:43.342Z,13.48
2023-10-19T09:10:47.810Z,11.05
2023-10-19T09:14:51.121Z,15.93
2023-10-19T09:18:55.493Z,10.95
2023-10-19T09:22:59.282Z,12.20
2023-10-19T09:27:03.496Z,13.85
2023-10-19T09:31:10.596Z,9.25
2023-10-19T09:35:16.917Z,7.55
2023-10-19T09:43:29.536Z,10.13
2023-10-19T09:47:37.495Z,10.18
2023-10-19T09:51:55.129Z,12.88
2023-10-19T09:56:12.566Z,7.55
2023-10-19T10:00:16.683Z,7.25
2023-10-19T10:04:33.509Z,8.32
2023-10-19T10:08:39.218Z,12.25
2023-10-19T10:12:42.070Z,8.25
2023-10-19T10:16:45.962Z,10.52
2023-10-19T10:20:49.683Z,8.25
2023-10-19T10:24:58.125Z,11.75
2023-10-19T10:29:13.197Z,11.35
2023-10-19T10:33:47.328Z,12.15
2023-10-19T10:37:56.392Z,11.60
2023-10-19T10:42:01.559Z,12.35
2023-10-19T10:46:08.520Z,10.53
2023-10-19T10:50:11.689Z,14.48
2023-10-19T10:54:15.574Z,9.25
2023-10-19T10:58:22.974Z,5.97
2023-10-19T11:02:25.861Z,8.65
2023-10-19T11:06:28.693Z,10.45
2023-10-19T11:10:32.463Z,7.75
2023-10-19T11:14:36.781Z,12.52
2023-10-19T11:18:41.539Z,7.30
2023-10-19T11:22:51.284Z,7.07
2023-10-19T11:26:55.332Z,9.82
2023-10-19T11:31:13.145Z,5.18
2023-10-19T11:35:16.153Z,9.32
2023-10-19T11:39:19.013Z,9.15
2023-10-19T11:43:21.842Z,6.80
2023-10-19T11:47:26.015Z,7.82
2023-10-19T11:51:28.878Z,5.93
2023-10-19T11:55:32.238Z,5.07
2023-10-19T11:59:35.070Z,8.93
2023-10-19T12:03:40.756Z,7.25
2023-10-19T12:11:50.789Z,8.20
2023-10-19T12:15:55.575Z,6.55
2023-10-19T12:20:00.046Z,4.38
2023-10-19T12:24:05.801Z,3.50
2023-10-19T12:28:08.618Z,6.93
2023-10-19T12:32:14.158Z,3.55
2023-10-19T12:36:32.405Z,5.47
2023-10-19T12:40:36.748Z,5.95
2023-10-19T12:44:45.795Z,4.07
2023-10-19T12:48:50.933Z,4.72
2023-10-19T12:52:57.240Z,3.30
2023-10-19T12:57:00.120Z,6.07
2023-10-19T13:01:11.871Z,5.90
2023-10-19T13:05:21.706Z,2.80
2023-10-19T13:09:31.931Z,7.10
2023-10-19T13:13:37.245Z,4.47
2023-10-19T13:17:40.344Z,7.10
2023-10-19T13:21:43.497Z,9.13
2023-10-19T13:25:54.422Z,7.18
2023-10-19T13:29:58.370Z,7.30
2023-10-19T13:34:04.238Z,3.90
2023-10-19T13:38:09.001Z,8.27
2023-10-19T13:42:13.223Z,8.07
2023-10-19T13:46:16.144Z,6.90
2023-10-19T13:50:19.329Z,8.55
2023-10-19T13:54:22.221Z,10.93
2023-10-19T13:58:26.603Z,8.07
2023-10-19T14:02:29.567Z,7.03
2023-10-19T14:06:32.511Z,7.32
2023-10-19T14:10:35.988Z,6.97
2023-10-19T14:14:40.211Z,13.50
2023-10-19T14:18:44.763Z,13.20
2023-10-19T14:22:50.918Z,11.45
2023-10-19T14:31:00.173Z,14.70
2023-10-19T14:35:04.656Z,11.55
2023-10-19T14:39:07.540Z,13.27
2023-10-19T14:43:10.363Z,12.27
2023-10-19T14:47:14.563Z,10.40
2023-10-19T14:51:17.419Z,11.85
2023-10-19T14:55:21.251Z,11.50
2023-10-19T14:59:24.144Z,18.65
2023-10-19T15:03:29.718Z,16.75
2023-10-19T15:07:33.743Z,13.65
2023-10-19T15:11:36.564Z,21.20
2023-10-19T15:15:39.618Z,15.10
2023-10-19T15:19:44.352Z,16.52
2023-10-19T15:23:47.995Z,16.92
2023-10-19T15:27:50.873Z,16.08
2023-10-19T15:31:53.743Z,16.65
2023-10-19T15:35:58.714Z,23.67
2023-10-19T15:40:01.573Z,17.92
2023-10-19T15:44:04.547Z,17.98
2023-10-19T15:48:11.301Z,18.63
2023-10-19T15:52:15.686Z,20.90
2023-10-19T15:56:19.022Z,22.70
2023-10-19T16:00:22.579Z,22.35
2023-10-19T16:04:25.594Z,21.08
2023-10-19T16:08:29.809Z,19.05
2023-10-19T16:12:32.720Z,24.83
2023-10-19T16:16:35.631Z,23.48
2023-10-19T16:20:40.166Z,15.55
2023-10-19T16:24:44.661Z,21.00
2023-10-19T16:28:47.832Z,28.58
2023-10-19T16:32:50.710Z,24.40
2023-10-19T16:36:53.667Z,23.90
2023-10-19T16:41:02.417Z,22.05
2023-10-19T16:45:07.702Z,28.77
2023-10-19T16:49:10.607Z,29.77
2023-10-19T16:53:13.752Z,34.85
2023-10-19T16:57:18.343Z,35.75
2023-10-19T17:01:21.737Z,38.38
2023-10-19T17:05:27.726Z,39.78
2023-10-19T17:09:31.017Z,40.58
2023-10-19T17:13:37.369Z,37.22
2023-10-19T17:17:40.497Z,44.28
2023-10-19T17:21:43.580Z,42.92
2023-10-19T17:25:47.245Z,48.00
2023-10-19T17:29:51.486Z,41.58
2023-10-19T17:33:54.508Z,42.47
2023-10-19T17:37:57.687Z,47.65
2023-10-19T17:42:00.571Z,40.13
2023-10-19T17:46:04.769Z,47.60
2023-10-19T17:50:11.355Z,44.95
2023-10-19T17:54:14.505Z,50.65
2023-10-19T17:58:17.334Z,47.78
2023-10-19T18:02:22.329Z,45.45
2023-10-19T18:06:25.944Z,45.53
2023-10-19T18:10:30.729Z,45.83
2023-10-19T18:14:33.837Z,41.78
2023-10-19T18:18:38.505Z,42.60
2023-10-19T18:22:41.474Z,50.25
2023-10-19T18:26:46.713Z,43.05
2023-10-19T18:30:56.756Z,47.73
2023-10-19T18:35:01.277Z,47.13
2023-10-19T18:39:04.313Z,60.03
2023-10-19T18:43:07.455Z,62.80
2023-10-19T18:47:10.580Z,62.40
2023-10-19T18:51:15.616Z,58.97
2023-10-19T18:55:23.809Z,60.30
2023-10-19T18:59:27.355Z,65.60
2023-10-19T19:03:33.085Z,51.55
2023-10-19T19:07:37.308Z,43.38
2023-10-19T19:11:43.309Z,44.05
2023-10-19T19:15:46.165Z,44.63
2023-10-19T19:19:49.085Z,44.78
2023-10-19T19:23:53.375Z,37.28
2023-10-19T19:27:56.263Z,45.55
2023-10-19T19:31:59.161Z,44.15
2023-10-19T19:36:02.095Z,40.90
2023-10-19T19:40:13.317Z,45.38
2023-10-19T19:44:16.269Z,36.40
2023-10-19T19:48:22.538Z,38.28
2023-10-19T19:52:26.123Z,37.80
2023-10-19T19:56:32.116Z,36.70
2023-10-19T20:00:35.151Z,39.38
2023-10-19T20:04:38.003Z,47.55
2023-10-19T20:08:40.832Z,44.35
2023-10-19T20:12:45.881Z,41.38
2023-10-19T20:16:48.961Z,37.67
2023-10-19T20:20:51.878Z,38.65
2023-10-19T20:24:55.073Z,37.65
2023-10-19T20:28:59.678Z,37.38
2023-10-19T20:33:03.757Z,38.35
2023-10-19T20:37:06.656Z,43.95
2023-10-19T20:41:09.644Z,43.40
2023-10-19T20:45:18.155Z,37.10
2023-10-19T20:49:21.006Z,23.65
2023-10-19T20:53:23.913Z,25.77
2023-10-19T20:57:26.866Z,22.67
2023-10-19T21:01:31.136Z,18.55
2023-10-19T21:05:35.264Z,19.85
2023-10-19T21:09:38.645Z,24.58
2023-10-19T21:13:41.475Z,17.58
2023-10-19T21:17:46.801Z,21.15
2023-10-19T21:21:49.643Z,25.20
2023-10-19T21:25:52.542Z,23.17
2023-10-19T21:29:55.410Z,22.52
2023-10-19T21:33:59.624Z,24.65
2023-10-19T21:38:02.720Z,26.10
2023-10-19T21:42:05.644Z,20.50
2023-10-19T21:46:08.536Z,30.40
2023-10-19T21:50:13.083Z,24.40
2023-10-19T21:54:16.064Z,24.80
2023-10-19T21:58:18.883Z,26.80
2023-10-19T22:02:21.804Z,22.67
2023-10-19T22:06:26.059Z,24.45
2023-10-19T22:10:28.962Z,25.00
2023-10-19T22:14:34.555Z,26.60
2023-10-19T22:18:37.689Z,31.25
2023-10-19T22:22:42.368Z,31.00
2023-10-19T22:26:45.202Z,26.38
2023-10-19T22:30:48.005Z,30.63
2023-10-19T22:34:50.840Z,33.08
2023-10-19T22:38:55.462Z,39.25
2023-10-19T22:42:58.312Z,39.03
2023-10-19T22:47:02.137Z,33.03
2023-10-19T22:51:05.203Z,33.45
2023-10-19T22:55:13.910Z,33.40
2023-10-19T22:59:16.773Z,32.33
2023-10-19T23:03:19.719Z,30.55
2023-10-19T23:07:22.559Z,35.78
2023-10-19T23:11:30.219Z,32.55
2023-10-19T23:15:38.008Z,34.28
2023-10-19T23:19:42.985Z,32.75
2023-10-19T23:23:46.716Z,30.50
2023-10-19T23:27:50.945Z,29.35
2023-10-19T23:31:53.881Z,30.27
2023-10-19T23:35:57.775Z,27.80
2023-10-19T23:40:00.607Z,29.50
2023-10-19T23:44:07.227Z,23.75
2023-10-19T23:48:12.144Z,26.05
2023-10-19T23:52:17.338Z,28.33
2023-10-19T23:56:20.202Z,26.85
